This is the latest recevied weather packets stored in our database for station/object SQ7FJB-2. If no packets are shown the sender has not sent any weather packets the latest 10 day(s).
| Time | Temp. | Humidity | Pressure | Rain* | Wind** | Luminosity | Snow |
|---|---|---|---|---|---|---|---|
| 1778056129 | 20° C | 56% | 1004.5 hPa | 0 mm | - | - | - |
| 1778055529 | 20° C | 56% | 1004.4 hPa | 0 mm | - | - | - |
| 1778054917 | 20° C | 56% | 1004.3 hPa | 0 mm | - | - | - |
| 1778054304 | 19.44° C | 56% | 1004.3 hPa | 0 mm | - | - | - |
| 1778053692 | 20.56° C | 56% | 1004.2 hPa | 0 mm | - | - | - |
| 1778053091 | 19.44° C | 57% | 1004.3 hPa | 0 mm | - | - | - |
| 1778052479 | 18.89° C | 58% | 1004.2 hPa | 0 mm | - | - | - |
| 1778051879 | 18.89° C | 58% | 1004.2 hPa | 0 mm | - | - | - |
| 1778051279 | 19.44° C | 55% | 1004.1 hPa | 0 mm | - | - | - |
| 1778050667 | 18.89° C | 56% | 1004 hPa | 0 mm | - | - | - |
| 1778050066 | 17.78° C | 59% | 1004 hPa | 0 mm | - | - | - |
| 1778049466 | 17.78° C | 60% | 1003.9 hPa | 0 mm | - | - | - |
| 1778048854 | 17.78° C | 60% | 1004 hPa | 0 mm | - | - | - |
| 1778048241 | 16.67° C | 62% | 1003.9 hPa | 0 mm | - | - | - |
| 1778047629 | 16.11° C | 63% | 1003.9 hPa | 0 mm | - | - | - |
| 1778047029 | 16.67° C | 63% | 1003.9 hPa | 0 mm | - | - | - |
| 1778046416 | 16.11° C | 63% | 1003.9 hPa | 0 mm | - | - | - |
| 1778045816 | 16.67° C | 61% | 1004 hPa | 0 mm | - | - | - |
| 1778045204 | 17.22° C | 57% | 1003.9 hPa | 0 mm | - | - | - |
| 1778044604 | 16.67° C | 58% | 1003.9 hPa | 0 mm | - | - | - |
| 1778044004 | 16.11° C | 58% | 1004.1 hPa | 0 mm | - | - | - |
| 1778043404 | 15.56° C | 53% | 1004.1 hPa | 0 mm | - | - | - |
| 1778042791 | 14.44° C | 57% | 1004.1 hPa | 0 mm | - | - | - |
| 1778041591 | 11.11° C | 68% | 1004.2 hPa | 0 mm | - | - | - |
| 1778040979 | 10.56° C | 75% | 1004.1 hPa | 0 mm | - | - | - |
* Rain latest hour (hover to see other rain measurements)
** Current wind speed in m/s (hover to see current wind gust speed)